createdAt,value
2017-09-22T04:08:16.809Z,99142.63
2017-09-22T05:25:27.260Z,99117.98
2017-09-22T05:33:11.632Z,99110.12
2017-09-22T05:35:48.197Z,99114.08
2017-09-22T05:40:53.961Z,99108.91
2017-09-22T05:54:35.906Z,99104.88
2017-09-22T05:57:02.416Z,99116.18
2017-09-22T05:59:28.778Z,99123.16
2017-09-22T06:01:55.609Z,99118.25
2017-09-22T06:04:21.987Z,99122.27
2017-09-22T06:06:48.402Z,99122.11
2017-09-22T06:09:14.758Z,99126.17
2017-09-22T06:11:41.113Z,99120.97
2017-09-22T06:14:07.522Z,99126.05
2017-09-22T06:16:33.866Z,99122.38
2017-09-22T06:19:00.314Z,99123.36
2017-09-22T06:21:27.002Z,99126.48
2017-09-22T06:24:04.233Z,99120.70
2017-09-22T06:26:33.172Z,99123.36
2017-09-22T06:29:01.299Z,99124.51
2017-09-22T06:31:27.928Z,99132.03
2017-09-22T06:40:37.981Z,99139.29
2017-09-22T06:43:04.595Z,99140.73
2017-09-22T06:45:30.963Z,99135.75
2017-09-22T06:47:57.290Z,99129.16
2017-09-22T06:50:23.635Z,99133.24
2017-09-22T06:52:50.159Z,99138.07
2017-09-22T06:55:16.371Z,99129.14
2017-09-22T06:57:42.581Z,99132.98
2017-09-22T07:00:08.853Z,99128.41
2017-09-22T07:02:34.999Z,99115.59
2017-09-22T07:05:01.315Z,99121.97
2017-09-22T07:07:27.740Z,99122.81
2017-09-22T07:09:53.970Z,99118.97
2017-09-22T07:12:20.652Z,99126.25
2017-09-22T07:14:47.157Z,99120.44
2017-09-22T07:17:13.379Z,99125.86
2017-09-22T07:19:39.704Z,99130.80
2017-09-22T07:22:05.955Z,99122.53
2017-09-22T07:24:32.471Z,99123.53
2017-09-22T07:26:58.933Z,99121.31
2017-09-22T07:29:25.234Z,99109.00
2017-09-22T07:31:51.584Z,99107.46
2017-09-22T07:34:18.212Z,99103.58
2017-09-22T07:36:44.439Z,99114.45
2017-09-22T07:39:11.523Z,99107.75
2017-09-22T07:41:37.725Z,99109.22
2017-09-22T07:44:04.576Z,99106.92
2017-09-22T07:46:31.216Z,99109.95
2017-09-22T07:48:57.513Z,99112.78
2017-09-22T07:51:23.822Z,99103.42
2017-09-22T07:53:50.272Z,99114.12
2017-09-22T07:56:16.514Z,99111.80
2017-09-22T07:58:42.846Z,99106.75
2017-09-22T08:01:09.423Z,99110.28
2017-09-22T08:03:35.663Z,99106.38
2017-09-22T08:06:01.853Z,99090.00
2017-09-22T08:08:28.510Z,99094.44
2017-09-22T08:10:54.813Z,99091.34
2017-09-22T08:13:21.274Z,99091.89
2017-09-22T08:15:47.480Z,99086.00
2017-09-22T08:18:13.793Z,99082.25
2017-09-22T08:20:40.380Z,99087.77
2017-09-22T08:23:06.700Z,99090.61
2017-09-22T08:25:33.411Z,99093.91
2017-09-22T08:27:59.686Z,99096.80
2017-09-22T08:30:26.122Z,99093.70
2017-09-22T08:32:53.059Z,99089.16
2017-09-22T08:35:19.374Z,99082.81
2017-09-22T08:37:45.734Z,99091.64
2017-09-22T08:40:12.078Z,99082.45
2017-09-22T08:42:38.488Z,99078.19
2017-09-22T08:45:04.641Z,99079.02
2017-09-22T08:47:30.854Z,99072.61
2017-09-22T08:49:57.071Z,99071.96
2017-09-22T08:52:23.308Z,99072.58
2017-09-22T08:54:49.630Z,99072.19
2017-09-22T08:57:15.860Z,99075.81
2017-09-22T08:59:42.175Z,99075.49
2017-09-22T09:02:08.524Z,99073.85
2017-09-22T09:04:35.151Z,99077.19
2017-09-22T09:07:01.520Z,99065.68
2017-09-22T09:09:27.837Z,99063.59
2017-09-22T09:11:54.167Z,99071.48
2017-09-22T09:14:20.709Z,99068.81
2017-09-22T09:16:47.023Z,99070.50
2017-09-22T09:19:13.769Z,99071.94
2017-09-22T09:21:40.112Z,99075.84
2017-09-22T09:24:06.339Z,99071.25
2017-09-22T09:26:32.629Z,99073.09
2017-09-22T09:28:59.120Z,99068.66
2017-09-22T09:31:25.641Z,99073.37
2017-09-22T09:33:51.978Z,99067.72
2017-09-22T09:36:18.201Z,99071.64
2017-09-22T09:38:44.528Z,99074.61
2017-09-22T09:41:10.768Z,99076.69
2017-09-22T09:43:36.969Z,99071.53
2017-09-22T09:46:03.335Z,99075.25
2017-09-22T09:48:29.670Z,99075.38
2017-09-22T09:50:56.202Z,99079.93
2017-09-22T09:53:22.418Z,99074.94
2017-09-22T09:55:48.748Z,99074.61
2017-09-22T09:58:15.010Z,99074.38
2017-09-22T10:00:41.328Z,99075.52
2017-09-22T10:03:07.549Z,99077.34
2017-09-22T10:05:33.778Z,99080.20
2017-09-22T10:08:00.523Z,99087.98
2017-09-22T10:10:26.832Z,99087.00
2017-09-22T10:12:53.091Z,99083.72
2017-09-22T10:15:19.409Z,99091.59
2017-09-22T10:17:45.784Z,99094.39
2017-09-22T10:20:12.071Z,99094.52
2017-09-22T10:22:38.343Z,99087.89
2017-09-22T10:25:04.528Z,99091.34
2017-09-22T10:27:30.975Z,99084.30
2017-09-22T10:29:57.130Z,99087.00
2017-09-22T10:32:23.393Z,99089.69
2017-09-22T10:34:49.971Z,99085.46
2017-09-22T10:37:16.618Z,99083.99
2017-09-22T10:39:43.062Z,99088.92
2017-09-22T10:42:09.431Z,99080.15
2017-09-22T10:44:36.026Z,99082.28
2017-09-22T10:47:02.394Z,99085.77
2017-09-22T10:49:29.011Z,99091.41
2017-09-22T10:51:55.424Z,99090.16
2017-09-22T10:54:21.741Z,99090.86
2017-09-22T10:56:47.966Z,99092.73
2017-09-22T10:59:14.138Z,99096.92
2017-09-22T11:01:40.407Z,99098.47
2017-09-22T11:04:06.740Z,99100.05
2017-09-22T11:06:32.969Z,99095.04
2017-09-22T11:08:59.153Z,99101.20
2017-09-22T11:11:25.660Z,99093.13
2017-09-22T11:13:52.228Z,99086.91
2017-09-22T11:16:18.551Z,99095.09
2017-09-22T11:18:44.899Z,99093.19
2017-09-22T11:21:11.188Z,99091.61
2017-09-22T11:23:37.529Z,99094.11
2017-09-22T11:26:03.851Z,99092.94
2017-09-22T11:28:30.516Z,99098.03
2017-09-22T11:30:56.873Z,99102.13
2017-09-22T11:33:23.154Z,99104.28
2017-09-22T11:35:49.394Z,99102.55
2017-09-22T11:38:15.733Z,99108.36
2017-09-22T11:40:42.175Z,99101.16
2017-09-22T11:43:08.488Z,99099.20
2017-09-22T11:45:34.919Z,99103.63
2017-09-22T11:48:01.085Z,99102.21
2017-09-22T11:50:28.172Z,99104.55
2017-09-22T11:52:54.456Z,99098.06
2017-09-22T11:55:20.750Z,99104.97
2017-09-22T11:57:47.004Z,99100.59
2017-09-22T12:00:13.337Z,99112.70
2017-09-22T12:02:39.758Z,99110.45
2017-09-22T12:05:05.902Z,99102.67
2017-09-22T12:07:32.140Z,99111.33
2017-09-22T12:09:58.471Z,99108.06
2017-09-22T12:12:24.900Z,99113.42
2017-09-22T12:14:51.309Z,99112.80
2017-09-22T12:17:17.558Z,99114.02
2017-09-22T12:19:43.981Z,99111.61
2017-09-22T12:22:10.205Z,99108.25
2017-09-22T12:24:36.451Z,99113.80
2017-09-22T12:27:02.770Z,99112.06
2017-09-22T12:29:28.992Z,99117.79
2017-09-22T12:31:55.664Z,99107.92
2017-09-22T12:34:22.184Z,99117.14
2017-09-22T12:36:48.424Z,99128.12
2017-09-22T12:39:14.841Z,99119.88
2017-09-22T12:41:41.466Z,99121.03
2017-09-22T12:44:08.817Z,99128.19
2017-09-22T12:46:35.167Z,99122.94
2017-09-22T12:49:01.469Z,99122.18
2017-09-22T12:51:27.778Z,99129.28
2017-09-22T12:53:54.805Z,99135.67
2017-09-22T12:56:21.114Z,99136.98
2017-09-22T12:58:47.326Z,99133.38
2017-09-22T13:01:13.669Z,99133.78
2017-09-22T13:03:39.926Z,99134.95
2017-09-22T13:06:06.286Z,99130.28
2017-09-22T13:08:32.748Z,99134.93
2017-09-22T13:10:59.212Z,99137.37
2017-09-22T13:13:25.592Z,99139.66
2017-09-22T13:15:52.050Z,99133.55
2017-09-22T13:18:18.268Z,99130.84
2017-09-22T13:20:45.063Z,99134.23
2017-09-22T13:23:11.427Z,99138.09
2017-09-22T13:25:37.729Z,99132.46
2017-09-22T13:28:03.922Z,99144.23
2017-09-22T13:30:30.080Z,99143.77
2017-09-22T13:32:56.371Z,99139.28
2017-09-22T13:35:22.680Z,99149.13
2017-09-22T13:37:49.023Z,99144.72
2017-09-22T13:40:15.364Z,99148.44
2017-09-22T13:42:41.534Z,99149.51
2017-09-22T13:45:07.928Z,99157.63
2017-09-22T13:47:34.238Z,99159.33
2017-09-22T13:50:01.036Z,99155.59
2017-09-22T13:52:27.721Z,99153.28
2017-09-22T13:54:54.016Z,99152.41
2017-09-22T13:57:20.310Z,99160.55
2017-09-22T13:59:46.511Z,99161.74
2017-09-22T14:02:13.003Z,99154.45
2017-09-22T14:04:39.197Z,99154.31
2017-09-22T14:07:05.433Z,99159.30
2017-09-22T14:09:31.643Z,99162.32
2017-09-22T14:11:57.897Z,99165.45
2017-09-22T14:14:24.090Z,99167.03
2017-09-22T14:16:50.389Z,99169.38
2017-09-22T14:19:16.701Z,99164.75
2017-09-22T14:21:43.001Z,99168.01
2017-09-22T14:24:09.300Z,99170.34
2017-09-22T14:26:35.531Z,99164.20
2017-09-22T14:29:01.846Z,99160.66
2017-09-22T14:31:28.393Z,99158.59
2017-09-22T14:33:54.727Z,99174.16
2017-09-22T14:36:21.046Z,99176.02
2017-09-22T14:38:47.383Z,99170.46
2017-09-22T14:41:13.608Z,99169.93
2017-09-22T14:43:40.571Z,99168.01
2017-09-22T14:46:06.848Z,99173.46
2017-09-22T14:48:33.074Z,99171.36
2017-09-22T14:50:59.779Z,99182.91
2017-09-22T14:53:26.404Z,99182.65
2017-09-22T14:55:52.676Z,99175.34
2017-09-22T14:58:19.251Z,99186.63
2017-09-22T15:00:45.923Z,99189.97
2017-09-22T15:03:12.421Z,99190.78
2017-09-22T15:05:38.745Z,99193.63
2017-09-22T15:08:05.428Z,99197.54
2017-09-22T15:10:31.748Z,99196.26
2017-09-22T15:12:58.731Z,99202.55
2017-09-22T15:15:25.248Z,99203.61
2017-09-22T15:17:51.549Z,99214.91
2017-09-22T15:20:17.790Z,99220.39
2017-09-22T15:22:44.317Z,99219.44
2017-09-22T15:25:11.463Z,99218.41
2017-09-22T15:27:38.036Z,99232.45
2017-09-22T15:30:04.372Z,99233.30
2017-09-22T15:32:31.222Z,99234.92
2017-09-22T15:34:57.495Z,99241.95
2017-09-22T15:37:25.225Z,99243.97
2017-09-22T15:39:51.700Z,99245.19
2017-09-22T15:42:17.983Z,99248.19
2017-09-22T15:44:44.581Z,99244.73
2017-09-22T15:47:11.066Z,99255.58
2017-09-22T15:49:37.665Z,99255.52
2017-09-22T15:52:04.335Z,99259.47
2017-09-22T15:54:30.712Z,99263.03
2017-09-22T15:56:56.943Z,99264.59
2017-09-22T15:59:23.167Z,99262.33
2017-09-22T16:01:49.508Z,99257.02
2017-09-22T16:04:16.449Z,99263.44
2017-09-22T16:06:42.880Z,99262.67
2017-09-22T16:09:09.872Z,99266.77
2017-09-22T16:11:36.407Z,99266.78
2017-09-22T16:14:02.802Z,99265.00
2017-09-22T16:16:29.262Z,99263.59
2017-09-22T16:18:55.672Z,99270.95
2017-09-22T16:21:30.682Z,99271.92
2017-09-22T16:23:56.984Z,99272.12
2017-09-22T16:26:23.371Z,99274.48
2017-09-22T16:28:49.644Z,99271.14
2017-09-22T16:31:16.188Z,99269.70
2017-09-22T16:33:42.487Z,99275.94
2017-09-22T16:36:08.827Z,99270.24
2017-09-22T16:38:35.174Z,99279.65
2017-09-22T16:41:01.621Z,99280.02
2017-09-22T16:43:31.646Z,99278.84
2017-09-22T16:45:57.928Z,99284.50
2017-09-22T16:48:24.291Z,99281.61
2017-09-22T16:50:50.871Z,99281.73
2017-09-22T16:53:17.178Z,99290.23
2017-09-22T16:55:43.713Z,99290.69
2017-09-22T16:58:10.027Z,99288.16
2017-09-22T17:00:36.460Z,99289.95
2017-09-22T17:03:03.085Z,99290.63
2017-09-22T17:05:29.736Z,99304.39
2017-09-22T17:07:56.178Z,99307.33
2017-09-22T17:10:22.502Z,99306.58
2017-09-22T17:12:49.284Z,99313.80
2017-09-22T17:15:15.572Z,99314.03
2017-09-22T17:17:41.914Z,99320.72
2017-09-22T17:20:08.556Z,99317.18
2017-09-22T17:22:34.797Z,99323.98
2017-09-22T17:25:01.034Z,99323.59
2017-09-22T17:27:27.445Z,99324.51
2017-09-22T17:29:53.639Z,99321.75
2017-09-22T17:32:19.825Z,99329.28
2017-09-22T17:34:46.448Z,99336.23
2017-09-22T17:37:12.880Z,99334.19
2017-09-22T17:39:39.435Z,99336.64
2017-09-22T17:42:05.736Z,99347.70
2017-09-22T17:44:32.394Z,99337.15
2017-09-22T17:46:58.957Z,99340.04
2017-09-22T17:49:25.579Z,99343.26
2017-09-22T17:51:51.890Z,99338.10
2017-09-22T17:54:18.315Z,99336.61
2017-09-22T17:56:44.652Z,99344.55
2017-09-22T17:59:10.977Z,99349.06
2017-09-22T18:01:37.633Z,99346.70
2017-09-22T18:04:03.847Z,99347.52
2017-09-22T18:06:30.051Z,99354.41
2017-09-22T18:08:56.450Z,99357.97
2017-09-22T18:11:22.769Z,99361.51
2017-09-22T18:13:49.087Z,99357.29
2017-09-22T18:16:15.431Z,99358.37
2017-09-22T18:18:41.919Z,99361.39
2017-09-22T18:21:08.202Z,99360.48
2017-09-22T18:23:34.625Z,99352.83
2017-09-22T18:26:01.051Z,99357.77
2017-09-22T18:28:27.493Z,99360.66
2017-09-22T18:30:53.913Z,99357.14
2017-09-22T18:33:20.441Z,99361.86
2017-09-22T18:35:46.804Z,99360.38
2017-09-22T18:38:13.123Z,99365.40
2017-09-22T18:40:39.452Z,99364.41
2017-09-22T18:43:05.689Z,99359.82
2017-09-22T18:45:32.007Z,99361.42
2017-09-22T18:47:59.027Z,99363.13
2017-09-22T18:50:25.389Z,99358.93
2017-09-22T18:52:51.753Z,99358.72
2017-09-22T18:55:18.062Z,99357.59
2017-09-22T18:57:44.713Z,99360.08
2017-09-22T19:00:11.039Z,99361.48
2017-09-22T19:02:37.375Z,99366.64
2017-09-22T19:05:04.221Z,99361.06
2017-09-22T19:07:30.554Z,99355.06
2017-09-22T19:09:56.765Z,99364.78
2017-09-22T19:12:22.994Z,99357.73
2017-09-22T19:14:49.343Z,99359.25
2017-09-22T19:17:15.892Z,99360.59
2017-09-22T19:19:42.294Z,99364.33
2017-09-22T19:22:08.760Z,99357.67
2017-09-22T19:24:35.169Z,99359.27
2017-09-22T19:27:01.614Z,99351.34
2017-09-22T19:29:27.987Z,99362.64
2017-09-22T19:31:54.270Z,99355.69
2017-09-22T19:34:20.804Z,99361.48
2017-09-22T19:36:47.142Z,99360.33
2017-09-22T19:39:13.469Z,99360.87
2017-09-22T19:41:39.933Z,99358.38
2017-09-22T19:44:06.228Z,99362.08
2017-09-22T19:46:32.565Z,99366.43
2017-09-22T19:48:59.013Z,99361.84
2017-09-22T19:51:25.439Z,99365.62
2017-09-22T19:53:51.884Z,99364.95
2017-09-22T19:56:18.093Z,99370.83
2017-09-22T19:58:44.545Z,99372.04
2017-09-22T20:01:10.870Z,99365.47
2017-09-22T20:03:37.097Z,99361.06
2017-09-22T20:06:04.047Z,99362.82
2017-09-22T20:08:30.589Z,99369.23
2017-09-22T20:10:56.835Z,99367.28
2017-09-22T20:13:23.256Z,99358.87
2017-09-22T20:15:49.684Z,99359.83
2017-09-22T20:18:16.024Z,99370.84
2017-09-22T20:20:42.362Z,99366.12
2017-09-22T20:23:08.891Z,99357.72
2017-09-22T20:25:35.521Z,99362.52
2017-09-22T20:28:01.876Z,99366.30
2017-09-22T20:30:28.707Z,99361.87
2017-09-22T20:32:55.351Z,99362.06
2017-09-22T20:35:21.780Z,99362.06
2017-09-22T20:37:48.216Z,99359.53
2017-09-22T20:40:14.472Z,99357.00
2017-09-22T20:42:41.062Z,99355.26
2017-09-22T20:45:07.282Z,99361.28
2017-09-22T20:47:33.652Z,99357.73
2017-09-22T20:49:59.809Z,99362.62
2017-09-22T20:52:26.035Z,99361.24
2017-09-22T20:54:52.333Z,99360.81
2017-09-22T20:57:18.745Z,99364.76
2017-09-22T20:59:45.205Z,99367.09
2017-09-22T21:02:11.411Z,99369.34
2017-09-22T21:04:37.756Z,99358.92
2017-09-22T21:07:04.081Z,99358.58
2017-09-22T21:09:30.328Z,99360.91
2017-09-22T21:11:56.869Z,99360.14
2017-09-22T21:14:23.197Z,99362.80
2017-09-22T21:16:49.524Z,99355.20
2017-09-22T21:19:15.956Z,99361.01
2017-09-22T21:21:42.288Z,99369.55
2017-09-22T21:24:08.819Z,99369.73
2017-09-22T21:26:35.044Z,99370.73
2017-09-22T21:29:01.387Z,99366.48
2017-09-22T21:31:28.757Z,99370.16
2017-09-22T21:33:55.179Z,99361.13
2017-09-22T21:36:21.514Z,99360.03
2017-09-22T21:38:47.945Z,99364.24
2017-09-22T21:41:14.149Z,99363.23
2017-09-22T21:43:40.406Z,99364.55
2017-09-22T21:46:07.137Z,99369.05
2017-09-22T21:48:33.386Z,99368.20
2017-09-22T21:50:59.709Z,99373.52
2017-09-22T21:53:26.246Z,99370.13
2017-09-22T21:55:52.681Z,99368.66
2017-09-22T21:58:19.217Z,99367.16
2017-09-22T22:00:45.643Z,99364.56
2017-09-22T22:03:11.971Z,99362.73
2017-09-22T22:05:38.222Z,99362.73
2017-09-22T22:08:04.546Z,99367.56
2017-09-22T22:10:30.983Z,99364.99
2017-09-22T22:12:57.940Z,99368.95
2017-09-22T22:15:24.251Z,99373.99
2017-09-22T22:17:50.694Z,99373.28
2017-09-22T22:20:17.031Z,99376.13
2017-09-22T22:22:43.469Z,99378.56
2017-09-22T22:25:09.785Z,99390.87
2017-09-22T22:27:36.220Z,99379.73
2017-09-22T22:30:02.440Z,99376.45
2017-09-22T22:32:29.206Z,99380.09
2017-09-22T22:34:55.739Z,99381.17
2017-09-22T22:37:21.948Z,99378.53
2017-09-22T22:39:48.304Z,99372.56
2017-09-22T22:42:14.736Z,99373.89
2017-09-22T22:44:41.174Z,99371.06
2017-09-22T22:47:07.500Z,99370.81
2017-09-22T22:49:33.923Z,99367.32
2017-09-22T22:52:00.152Z,99367.50
2017-09-22T22:54:26.492Z,99369.36
2017-09-22T22:56:52.731Z,99369.96
2017-09-22T22:59:19.587Z,99364.53
2017-09-22T23:01:46.004Z,99370.75
2017-09-22T23:04:13.273Z,99371.03
2017-09-22T23:06:39.582Z,99377.02
2017-09-22T23:09:05.908Z,99378.87
2017-09-22T23:11:32.260Z,99373.11
2017-09-22T23:13:58.793Z,99369.24
2017-09-22T23:16:25.226Z,99371.50
2017-09-22T23:18:51.554Z,99373.09
2017-09-22T23:21:17.872Z,99376.52
2017-09-22T23:23:44.548Z,99373.66
2017-09-22T23:26:10.955Z,99378.48
2017-09-22T23:28:37.585Z,99381.17
2017-09-22T23:31:04.332Z,99380.77
2017-09-22T23:33:30.587Z,99382.17
2017-09-22T23:35:57.000Z,99387.84
2017-09-22T23:38:23.242Z,99394.36
2017-09-22T23:40:49.570Z,99398.11
2017-09-22T23:43:16.108Z,99399.78
2017-09-22T23:45:42.447Z,99397.70
2017-09-22T23:48:08.766Z,99396.60
2017-09-22T23:50:35.100Z,99397.45
2017-09-22T23:53:01.644Z,99389.03
2017-09-22T23:55:27.984Z,99381.33
2017-09-22T23:57:54.530Z,99379.41
